sensor_id;sensor_type;location;lat;lon;timestamp;pressure;altitude;pressure_sealevel;temperature;humidity
76128;BME280;64873;50.102;14.434;2024-01-06T00:00:58;98167.84;;;4.95;90.47
76128;BME280;64873;50.102;14.434;2024-01-06T00:03:23;98162.69;;;5.14;89.03
76128;BME280;64873;50.102;14.434;2024-01-06T00:05:48;98164.50;;;5.20;88.38
76128;BME280;64873;50.102;14.434;2024-01-06T00:08:14;98155.38;;;5.02;88.76
76128;BME280;64873;50.102;14.434;2024-01-06T00:10:39;98156.59;;;5.06;88.34
76128;BME280;64873;50.102;14.434;2024-01-06T00:13:05;98167.91;;;4.75;89.16
76128;BME280;64873;50.102;14.434;2024-01-06T00:15:30;98160.16;;;4.61;90.74
76128;BME280;64873;50.102;14.434;2024-01-06T00:17:55;98151.56;;;4.85;90.73
76128;BME280;64873;50.102;14.434;2024-01-06T00:20:21;98150.53;;;4.86;90.34
76128;BME280;64873;50.102;14.434;2024-01-06T00:22:46;98155.56;;;5.07;89.18
76128;BME280;64873;50.102;14.434;2024-01-06T00:25:11;98140.16;;;4.91;89.57
76128;BME280;64873;50.102;14.434;2024-01-06T00:27:37;98146.69;;;4.82;90.14
76128;BME280;64873;50.102;14.434;2024-01-06T00:30:02;98160.88;;;5.07;89.43
76128;BME280;64873;50.102;14.434;2024-01-06T00:32:28;98163.94;;;5.11;89.33
76128;BME280;64873;50.102;14.434;2024-01-06T00:34:54;98170.44;;;5.08;88.83
76128;BME280;64873;50.102;14.434;2024-01-06T00:37:20;98152.34;;;5.05;88.64
76128;BME280;64873;50.102;14.434;2024-01-06T00:39:45;98162.50;;;5.08;88.96
76128;BME280;64873;50.102;14.434;2024-01-06T00:42:10;98156.84;;;4.98;89.43
76128;BME280;64873;50.102;14.434;2024-01-06T00:44:36;98164.16;;;4.96;89.90
76128;BME280;64873;50.102;14.434;2024-01-06T00:47:02;98153.59;;;4.90;89.77
76128;BME280;64873;50.102;14.434;2024-01-06T00:49:28;98170.25;;;4.97;90.29
76128;BME280;64873;50.102;14.434;2024-01-06T00:51:53;98172.94;;;4.90;90.00
76128;BME280;64873;50.102;14.434;2024-01-06T00:54:18;98165.59;;;4.86;90.13
76128;BME280;64873;50.102;14.434;2024-01-06T00:56:44;98154.47;;;4.70;90.70
76128;BME280;64873;50.102;14.434;2024-01-06T00:59:09;98182.94;;;4.68;91.13
76128;BME280;64873;50.102;14.434;2024-01-06T01:01:34;98175.84;;;4.55;92.21
76128;BME280;64873;50.102;14.434;2024-01-06T01:04:00;98160.19;;;4.41;92.33
76128;BME280;64873;50.102;14.434;2024-01-06T01:06:25;98167.50;;;4.45;92.49
76128;BME280;64873;50.102;14.434;2024-01-06T01:08:51;98186.03;;;4.59;92.45
76128;BME280;64873;50.102;14.434;2024-01-06T01:11:16;98176.06;;;4.47;91.94
76128;BME280;64873;50.102;14.434;2024-01-06T01:13:41;98193.97;;;4.52;92.43
76128;BME280;64873;50.102;14.434;2024-01-06T01:16:07;98184.41;;;4.58;92.53
76128;BME280;64873;50.102;14.434;2024-01-06T01:18:32;98207.56;;;4.62;92.25
76128;BME280;64873;50.102;14.434;2024-01-06T01:20:57;98199.63;;;4.62;92.04
76128;BME280;64873;50.102;14.434;2024-01-06T01:23:23;98199.66;;;4.55;92.28
76128;BME280;64873;50.102;14.434;2024-01-06T01:25:48;98185.81;;;4.53;92.44
76128;BME280;64873;50.102;14.434;2024-01-06T01:28:14;98206.59;;;4.63;92.59
76128;BME280;64873;50.102;14.434;2024-01-06T01:30:39;98192.75;;;4.54;92.35
76128;BME280;64873;50.102;14.434;2024-01-06T01:33:05;98190.50;;;4.58;92.01
76128;BME280;64873;50.102;14.434;2024-01-06T01:35:30;98202.09;;;4.50;92.62
76128;BME280;64873;50.102;14.434;2024-01-06T01:37:56;98202.28;;;4.55;93.13
76128;BME280;64873;50.102;14.434;2024-01-06T01:40:21;98188.84;;;4.57;92.48
76128;BME280;64873;50.102;14.434;2024-01-06T01:42:46;98185.03;;;4.46;93.00
76128;BME280;64873;50.102;14.434;2024-01-06T01:45:12;98196.63;;;4.59;92.49
76128;BME280;64873;50.102;14.434;2024-01-06T01:47:37;98189.88;;;4.49;92.62
76128;BME280;64873;50.102;14.434;2024-01-06T01:50:04;98200.88;;;4.53;93.00
76128;BME280;64873;50.102;14.434;2024-01-06T01:52:30;98200.69;;;4.41;92.96
76128;BME280;64873;50.102;14.434;2024-01-06T01:54:56;98200.91;;;4.46;93.27
76128;BME280;64873;50.102;14.434;2024-01-06T01:57:23;98199.25;;;4.45;93.74
76128;BME280;64873;50.102;14.434;2024-01-06T01:59:50;98187.47;;;4.28;94.25
76128;BME280;64873;50.102;14.434;2024-01-06T02:02:16;98179.94;;;4.32;94.00
76128;BME280;64873;50.102;14.434;2024-01-06T02:04:42;98189.91;;;4.36;94.35
76128;BME280;64873;50.102;14.434;2024-01-06T02:07:07;98176.06;;;4.34;93.90
76128;BME280;64873;50.102;14.434;2024-01-06T02:09:33;98173.63;;;4.33;93.74
76128;BME280;64873;50.102;14.434;2024-01-06T02:11:58;98187.06;;;4.58;93.79
76128;BME280;64873;50.102;14.434;2024-01-06T02:14:24;98188.47;;;4.40;93.32
76128;BME280;64873;50.102;14.434;2024-01-06T02:16:49;98193.16;;;4.25;94.40
76128;BME280;64873;50.102;14.434;2024-01-06T02:19:16;98177.06;;;4.20;94.24
76128;BME280;64873;50.102;14.434;2024-01-06T02:21:43;98163.84;;;4.20;94.51
76128;BME280;64873;50.102;14.434;2024-01-06T02:24:10;98192.75;;;4.35;94.67
76128;BME280;64873;50.102;14.434;2024-01-06T02:26:35;98188.25;;;4.22;95.10
76128;BME280;64873;50.102;14.434;2024-01-06T02:29:01;98172.59;;;4.07;95.44
76128;BME280;64873;50.102;14.434;2024-01-06T02:31:27;98190.28;;;4.20;95.46
76128;BME280;64873;50.102;14.434;2024-01-06T02:33:52;98167.72;;;4.24;95.06
76128;BME280;64873;50.102;14.434;2024-01-06T02:36:18;98196.59;;;4.72;93.69
76128;BME280;64873;50.102;14.434;2024-01-06T02:38:43;98176.06;;;4.41;93.55
76128;BME280;64873;50.102;14.434;2024-01-06T02:41:09;98185.41;;;4.70;93.00
76128;BME280;64873;50.102;14.434;2024-01-06T02:43:34;98173.78;;;4.71;92.98
76128;BME280;64873;50.102;14.434;2024-01-06T02:46:00;98183.16;;;4.87;91.80
76128;BME280;64873;50.102;14.434;2024-01-06T02:48:25;98191.06;;;4.93;91.92
76128;BME280;64873;50.102;14.434;2024-01-06T02:50:50;98195.16;;;4.63;91.88
76128;BME280;64873;50.102;14.434;2024-01-06T02:53:16;98189.47;;;4.39;93.46
76128;BME280;64873;50.102;14.434;2024-01-06T02:55:41;98181.38;;;4.34;94.42
76128;BME280;64873;50.102;14.434;2024-01-06T02:58:07;98202.69;;;4.39;94.77
76128;BME280;64873;50.102;14.434;2024-01-06T03:00:34;98199.88;;;4.47;94.34
76128;BME280;64873;50.102;14.434;2024-01-06T03:02:59;98200.28;;;4.64;94.68
76128;BME280;64873;50.102;14.434;2024-01-06T03:05:24;98185.00;;;4.53;93.64
76128;BME280;64873;50.102;14.434;2024-01-06T03:07:50;98199.66;;;4.75;92.72
76128;BME280;64873;50.102;14.434;2024-01-06T03:10:15;98206.16;;;4.66;92.64
76128;BME280;64873;50.102;14.434;2024-01-06T03:12:41;98202.50;;;4.61;93.74
76128;BME280;64873;50.102;14.434;2024-01-06T03:15:06;98203.31;;;4.61;93.82
76128;BME280;64873;50.102;14.434;2024-01-06T03:17:32;98200.91;;;4.46;94.50
76128;BME280;64873;50.102;14.434;2024-01-06T03:19:57;98207.81;;;4.54;94.26
76128;BME280;64873;50.102;14.434;2024-01-06T03:22:23;98201.69;;;4.53;94.37
76128;BME280;64873;50.102;14.434;2024-01-06T03:24:48;98198.44;;;4.38;95.50
76128;BME280;64873;50.102;14.434;2024-01-06T03:27:14;98178.09;;;4.32;95.94
76128;BME280;64873;50.102;14.434;2024-01-06T03:29:39;98177.88;;;4.34;95.74
76128;BME280;64873;50.102;14.434;2024-01-06T03:32:05;98188.47;;;4.40;96.02
76128;BME280;64873;50.102;14.434;2024-01-06T03:34:31;98192.53;;;4.43;96.14
76128;BME280;64873;50.102;14.434;2024-01-06T03:36:56;98193.56;;;4.48;96.38
76128;BME280;64873;50.102;14.434;2024-01-06T03:39:21;98191.13;;;4.53;95.49
76128;BME280;64873;50.102;14.434;2024-01-06T03:41:49;98192.75;;;4.41;95.52
76128;BME280;64873;50.102;14.434;2024-01-06T03:44:14;98181.94;;;4.49;95.96
76128;BME280;64873;50.102;14.434;2024-01-06T03:46:40;98187.88;;;4.51;95.54
76128;BME280;64873;50.102;14.434;2024-01-06T03:49:05;98174.03;;;4.30;95.92
76128;BME280;64873;50.102;14.434;2024-01-06T03:51:30;98178.09;;;4.25;95.97
76128;BME280;64873;50.102;14.434;2024-01-06T03:53:56;98174.63;;;4.25;96.36
76128;BME280;64873;50.102;14.434;2024-01-06T03:56:21;98203.72;;;4.38;96.65
76128;BME280;64873;50.102;14.434;2024-01-06T03:58:47;98170.75;;;4.27;96.41
76128;BME280;64873;50.102;14.434;2024-01-06T04:01:12;98191.94;;;4.47;96.20
76128;BME280;64873;50.102;14.434;2024-01-06T04:03:38;98182.16;;;4.41;96.01
76128;BME280;64873;50.102;14.434;2024-01-06T04:06:05;98174.84;;;4.30;95.68
76128;BME280;64873;50.102;14.434;2024-01-06T04:08:31;98177.69;;;4.35;95.94
76128;BME280;64873;50.102;14.434;2024-01-06T04:10:56;98177.50;;;4.37;95.77
76128;BME280;64873;50.102;14.434;2024-01-06T04:13:22;98167.31;;;4.34;95.96
76128;BME280;64873;50.102;14.434;2024-01-06T04:15:47;98174.44;;;4.40;95.75
76128;BME280;64873;50.102;14.434;2024-01-06T04:18:12;98177.69;;;4.35;95.35
76128;BME280;64873;50.102;14.434;2024-01-06T04:20:38;98195.19;;;4.36;95.55
76128;BME280;64873;50.102;14.434;2024-01-06T04:23:03;98171.59;;;4.35;95.32
76128;BME280;64873;50.102;14.434;2024-01-06T04:25:29;98182.16;;;4.41;95.54
76128;BME280;64873;50.102;14.434;2024-01-06T04:27:54;98188.66;;;4.39;95.27
76128;BME280;64873;50.102;14.434;2024-01-06T04:30:19;98185.84;;;4.40;95.95
76128;BME280;64873;50.102;14.434;2024-01-06T04:32:45;98182.56;;;4.38;95.65
76128;BME280;64873;50.102;14.434;2024-01-06T04:35:14;98182.56;;;4.38;95.72
76128;BME280;64873;50.102;14.434;2024-01-06T04:37:39;98167.94;;;4.29;95.58
76128;BME280;64873;50.102;14.434;2024-01-06T04:40:05;98184.00;;;4.34;95.74
76128;BME280;64873;50.102;14.434;2024-01-06T04:42:30;98192.34;;;4.38;95.47
76128;BME280;64873;50.102;14.434;2024-01-06T04:44:56;98176.88;;;4.15;95.54
76128;BME280;64873;50.102;14.434;2024-01-06T04:47:21;98189.91;;;4.23;96.14
76128;BME280;64873;50.102;14.434;2024-01-06T04:49:47;98177.28;;;4.25;96.14
76128;BME280;64873;50.102;14.434;2024-01-06T04:52:12;98189.28;;;4.21;95.54
76128;BME280;64873;50.102;14.434;2024-01-06T04:54:38;98203.72;;;4.38;95.51
76128;BME280;64873;50.102;14.434;2024-01-06T04:57:04;98200.88;;;4.33;95.34
76128;BME280;64873;50.102;14.434;2024-01-06T04:59:30;98208.81;;;4.33;94.98
76128;BME280;64873;50.102;14.434;2024-01-06T05:01:57;98204.31;;;4.20;95.11
76128;BME280;64873;50.102;14.434;2024-01-06T05:04:22;98218.19;;;4.29;95.40
76128;BME280;64873;50.102;14.434;2024-01-06T05:06:47;98219.59;;;4.25;95.13
76128;BME280;64873;50.102;14.434;2024-01-06T05:09:14;98224.50;;;4.28;95.34
76128;BME280;64873;50.102;14.434;2024-01-06T05:11:40;98214.91;;;4.27;95.34
76128;BME280;64873;50.102;14.434;2024-01-06T05:14:05;98219.59;;;4.25;95.27
76128;BME280;64873;50.102;14.434;2024-01-06T05:16:31;98216.56;;;4.28;95.20
76128;BME280;64873;50.102;14.434;2024-01-06T05:18:56;98211.06;;;4.23;95.57
76128;BME280;64873;50.102;14.434;2024-01-06T05:21:22;98206.16;;;4.20;95.38
76128;BME280;64873;50.102;14.434;2024-01-06T05:23:47;98198.00;;;4.21;95.42
76128;BME280;64873;50.102;14.434;2024-01-06T05:26:12;98202.91;;;4.31;95.40
76128;BME280;64873;50.102;14.434;2024-01-06T05:28:39;98207.78;;;4.21;96.13
76128;BME280;64873;50.102;14.434;2024-01-06T05:31:05;98201.69;;;4.14;96.28
76128;BME280;64873;50.102;14.434;2024-01-06T05:33:31;98222.81;;;4.00;96.33
76128;BME280;64873;50.102;14.434;2024-01-06T05:35:56;98218.78;;;4.24;96.48
76128;BME280;64873;50.102;14.434;2024-01-06T05:38:21;98215.09;;;4.06;96.21
76128;BME280;64873;50.102;14.434;2024-01-06T05:40:47;98226.28;;;4.14;96.22
76128;BME280;64873;50.102;14.434;2024-01-06T05:43:13;98236.47;;;4.31;96.15
76128;BME280;64873;50.102;14.434;2024-01-06T05:45:38;98233.84;;;4.37;94.73
76128;BME280;64873;50.102;14.434;2024-01-06T05:48:09;98227.72;;;4.23;94.90
76128;BME280;64873;50.102;14.434;2024-01-06T05:50:35;98209.81;;;4.19;94.57
76128;BME280;64873;50.102;14.434;2024-01-06T05:53:00;98237.88;;;4.33;94.64
76128;BME280;64873;50.102;14.434;2024-01-06T05:55:25;98219.97;;;4.22;94.92
76128;BME280;64873;50.102;14.434;2024-01-06T05:57:51;98233.84;;;4.31;94.64
76128;BME280;64873;50.102;14.434;2024-01-06T06:00:17;98252.94;;;4.39;94.23
76128;BME280;64873;50.102;14.434;2024-01-06T06:02:42;98252.94;;;4.26;94.96
76128;BME280;64873;50.102;14.434;2024-01-06T06:05:08;98266.00;;;4.34;94.89
76128;BME280;64873;50.102;14.434;2024-01-06T06:07:33;98238.91;;;4.12;94.54
76128;BME280;64873;50.102;14.434;2024-01-06T06:10:07;98246.03;;;4.25;95.31
76128;BME280;64873;50.102;14.434;2024-01-06T06:12:33;98261.31;;;4.36;95.09
76128;BME280;64873;50.102;14.434;2024-01-06T06:14:58;98266.38;;;4.31;94.74
76128;BME280;64873;50.102;14.434;2024-01-06T06:17:24;98258.03;;;4.27;94.80
76128;BME280;64873;50.102;14.434;2024-01-06T06:19:50;98268.41;;;4.22;94.76
76128;BME280;64873;50.102;14.434;2024-01-06T06:22:16;98283.47;;;4.35;95.22
76128;BME280;64873;50.102;14.434;2024-01-06T06:24:41;98287.53;;;4.31;95.45
76128;BME280;64873;50.102;14.434;2024-01-06T06:27:07;98283.28;;;4.30;95.66
76128;BME280;64873;50.102;14.434;2024-01-06T06:29:32;98303.63;;;4.36;95.51
76128;BME280;64873;50.102;14.434;2024-01-06T06:31:58;98293.63;;;4.25;95.80
76128;BME280;64873;50.102;14.434;2024-01-06T06:34:23;98298.13;;;4.31;95.76
76128;BME280;64873;50.102;14.434;2024-01-06T06:36:48;98312.34;;;4.30;96.31
76128;BME280;64873;50.102;14.434;2024-01-06T06:39:14;98307.47;;;4.34;96.56
76128;BME280;64873;50.102;14.434;2024-01-06T06:41:39;98305.84;;;4.26;96.48
76128;BME280;64873;50.102;14.434;2024-01-06T06:44:05;98297.66;;;4.08;96.86
76128;BME280;64873;50.102;14.434;2024-01-06T06:46:30;98301.91;;;4.09;97.16
76128;BME280;64873;50.102;14.434;2024-01-06T06:48:56;98284.19;;;3.96;97.60
76128;BME280;64873;50.102;14.434;2024-01-06T06:51:22;98293.16;;;4.01;97.80
76128;BME280;64873;50.102;14.434;2024-01-06T06:53:50;98318.41;;;4.11;98.04
76128;BME280;64873;50.102;14.434;2024-01-06T06:56:15;98306.59;;;4.07;97.77
76128;BME280;64873;50.102;14.434;2024-01-06T06:58:42;98308.50;;;4.39;98.31
76128;BME280;64873;50.102;14.434;2024-01-06T07:01:07;98319.66;;;4.21;97.69
76128;BME280;64873;50.102;14.434;2024-01-06T07:03:33;98317.81;;;4.22;97.41
76128;BME280;64873;50.102;14.434;2024-01-06T07:05:58;98329.81;;;4.18;97.16
76128;BME280;64873;50.102;14.434;2024-01-06T07:08:24;98330.88;;;4.30;97.61
76128;BME280;64873;50.102;14.434;2024-01-06T07:10:49;98316.75;;;4.10;97.31
76128;BME280;64873;50.102;14.434;2024-01-06T07:13:14;98340.81;;;4.21;97.65
76128;BME280;64873;50.102;14.434;2024-01-06T07:15:40;98319.59;;;4.01;97.26
76128;BME280;64873;50.102;14.434;2024-01-06T07:18:06;98346.91;;;4.22;97.44
76128;BME280;64873;50.102;14.434;2024-01-06T07:20:32;98348.09;;;4.13;97.79
76128;BME280;64873;50.102;14.434;2024-01-06T07:22:57;98349.75;;;4.27;97.41
76128;BME280;64873;50.102;14.434;2024-01-06T07:25:23;98350.75;;;4.13;97.64
76128;BME280;64873;50.102;14.434;2024-01-06T07:27:48;98352.59;;;4.19;98.10
76128;BME280;64873;50.102;14.434;2024-01-06T07:30:14;98353.19;;;4.21;97.59
76128;BME280;64873;50.102;14.434;2024-01-06T07:32:39;98361.16;;;4.27;98.17
76128;BME280;64873;50.102;14.434;2024-01-06T07:35:05;98356.72;;;4.28;97.53
76128;BME280;64873;50.102;14.434;2024-01-06T07:37:30;98342.41;;;4.16;97.69
76128;BME280;64873;50.102;14.434;2024-01-06T07:39:55;98357.47;;;4.22;97.27
76128;BME280;64873;50.102;14.434;2024-01-06T07:42:21;98360.78;;;4.31;97.64
76128;BME280;64873;50.102;14.434;2024-01-06T07:44:47;98353.97;;;4.08;97.22
76128;BME280;64873;50.102;14.434;2024-01-06T07:47:12;98369.72;;;4.23;97.46
76128;BME280;64873;50.102;14.434;2024-01-06T07:49:38;98355.03;;;4.20;97.66
76128;BME280;64873;50.102;14.434;2024-01-06T07:52:03;98360.75;;;4.17;97.17
76128;BME280;64873;50.102;14.434;2024-01-06T07:54:29;98377.66;;;4.30;97.57
76128;BME280;64873;50.102;14.434;2024-01-06T07:56:55;98372.56;;;4.28;96.98
76128;BME280;64873;50.102;14.434;2024-01-06T07:59:20;98384.38;;;4.32;97.26
76128;BME280;64873;50.102;14.434;2024-01-06T08:01:46;98381.31;;;4.28;96.92
76128;BME280;64873;50.102;14.434;2024-01-06T08:04:11;98359.13;;;4.16;97.16
76128;BME280;64873;50.102;14.434;2024-01-06T08:06:36;98382.28;;;4.21;97.20
76128;BME280;64873;50.102;14.434;2024-01-06T08:09:02;98389.28;;;4.35;97.62
76128;BME280;64873;50.102;14.434;2024-01-06T08:11:28;98390.88;;;4.30;97.23
76128;BME280;64873;50.102;14.434;2024-01-06T08:13:54;98392.06;;;4.27;97.88
76128;BME280;64873;50.102;14.434;2024-01-06T08:16:20;98392.72;;;4.29;97.76
76128;BME280;64873;50.102;14.434;2024-01-06T08:18:45;98380.66;;;4.20;97.61
76128;BME280;64873;50.102;14.434;2024-01-06T08:21:11;98392.88;;;4.27;97.14
76128;BME280;64873;50.102;14.434;2024-01-06T08:23:37;98394.53;;;4.28;97.02
76128;BME280;64873;50.102;14.434;2024-01-06T08:26:02;98407.56;;;4.30;97.05
76128;BME280;64873;50.102;14.434;2024-01-06T08:28:29;98389.63;;;4.19;96.67
76128;BME280;64873;50.102;14.434;2024-01-06T08:30:55;98419.75;;;4.24;97.17
76128;BME280;64873;50.102;14.434;2024-01-06T08:33:20;98416.28;;;4.24;96.94
76128;BME280;64873;50.102;14.434;2024-01-06T08:35:46;98419.34;;;4.27;96.43
76128;BME280;64873;50.102;14.434;2024-01-06T08:38:11;98412.44;;;4.33;96.81
76128;BME280;64873;50.102;14.434;2024-01-06T08:40:37;98400.00;;;4.27;96.88
76128;BME280;64873;50.102;14.434;2024-01-06T08:43:02;98396.38;;;4.28;96.04
76128;BME280;64873;50.102;14.434;2024-01-06T08:45:28;98415.09;;;4.33;96.43
76128;BME280;64873;50.102;14.434;2024-01-06T08:47:53;98423.81;;;4.27;96.79
76128;BME280;64873;50.102;14.434;2024-01-06T08:50:19;98421.56;;;4.24;97.01
76128;BME280;64873;50.102;14.434;2024-01-06T08:52:44;98420.19;;;4.28;96.51
76128;BME280;64873;50.102;14.434;2024-01-06T08:55:10;98431.59;;;4.35;96.33
76128;BME280;64873;50.102;14.434;2024-01-06T08:57:35;98417.94;;;4.32;95.82
76128;BME280;64873;50.102;14.434;2024-01-06T09:00:03;98411.00;;;4.24;95.59
76128;BME280;64873;50.102;14.434;2024-01-06T09:02:28;98423.03;;;4.33;95.64
76128;BME280;64873;50.102;14.434;2024-01-06T09:04:53;98425.88;;;4.32;95.11
76128;BME280;64873;50.102;14.434;2024-01-06T09:07:19;98428.72;;;4.30;95.03
76128;BME280;64873;50.102;14.434;2024-01-06T09:09:44;98406.28;;;4.19;94.74
76128;BME280;64873;50.102;14.434;2024-01-06T09:12:10;98423.88;;;4.40;94.00
76128;BME280;64873;50.102;14.434;2024-01-06T09:14:35;98433.69;;;4.53;93.96
76128;BME280;64873;50.102;14.434;2024-01-06T09:17:01;98435.69;;;4.51;93.03
76128;BME280;64873;50.102;14.434;2024-01-06T09:19:26;98428.41;;;4.60;93.38
76128;BME280;64873;50.102;14.434;2024-01-06T09:21:54;98434.13;;;4.63;93.08
76128;BME280;64873;50.102;14.434;2024-01-06T09:24:20;98396.00;;;4.44;92.66
76128;BME280;64873;50.102;14.434;2024-01-06T09:26:45;98412.34;;;4.68;93.71
76128;BME280;64873;50.102;14.434;2024-01-06T09:29:11;98436.81;;;4.83;92.79
76128;BME280;64873;50.102;14.434;2024-01-06T09:31:36;98443.53;;;4.86;91.64
76128;BME280;64873;50.102;14.434;2024-01-06T09:34:02;98442.09;;;4.70;91.19
76128;BME280;64873;50.102;14.434;2024-01-06T09:36:31;98446.00;;;4.87;91.62
76128;BME280;64873;50.102;14.434;2024-01-06T09:38:56;98449.69;;;4.99;91.06
76128;BME280;64873;50.102;14.434;2024-01-06T09:41:22;98417.84;;;4.73;90.42
76128;BME280;64873;50.102;14.434;2024-01-06T09:43:48;98454.16;;;4.99;90.29
76128;BME280;64873;50.102;14.434;2024-01-06T09:46:27;98450.88;;;4.97;90.25
76128;BME280;64873;50.102;14.434;2024-01-06T09:48:55;98459.47;;;4.99;89.84
76128;BME280;64873;50.102;14.434;2024-01-06T09:51:21;98454.78;;;5.01;89.68
76128;BME280;64873;50.102;14.434;2024-01-06T09:54:09;98449.91;;;5.04;89.46
76128;BME280;64873;50.102;14.434;2024-01-06T09:56:34;98426.47;;;5.08;88.94
76128;BME280;64873;50.102;14.434;2024-01-06T09:59:00;98449.69;;;5.13;88.38
76128;BME280;64873;50.102;14.434;2024-01-06T10:01:26;98441.53;;;5.01;89.04
76128;BME280;64873;50.102;14.434;2024-01-06T10:03:51;98418.72;;;4.93;88.74
76128;BME280;64873;50.102;14.434;2024-01-06T10:06:18;98436.66;;;5.04;88.62
76128;BME280;64873;50.102;14.434;2024-01-06T10:08:46;98446.44;;;5.11;88.68
76128;BME280;64873;50.102;14.434;2024-01-06T10:11:13;98451.53;;;5.05;88.74
76128;BME280;64873;50.102;14.434;2024-01-06T10:13:38;98446.03;;;5.00;88.89
76128;BME280;64873;50.102;14.434;2024-01-06T10:16:05;98442.78;;;5.05;89.52
76128;BME280;64873;50.102;14.434;2024-01-06T10:18:31;98443.59;;;5.19;88.88
76128;BME280;64873;50.102;14.434;2024-01-06T10:20:57;98439.94;;;5.26;89.01
76128;BME280;64873;50.102;14.434;2024-01-06T10:23:23;98428.72;;;5.04;88.89
76128;BME280;64873;50.102;14.434;2024-01-06T10:25:54;98443.38;;;5.14;89.64
76128;BME280;64873;50.102;14.434;2024-01-06T10:28:23;98452.56;;;5.04;89.09
76128;BME280;64873;50.102;14.434;2024-01-06T10:30:51;98444.19;;;5.07;89.06
76128;BME280;64873;50.102;14.434;2024-01-06T10:33:17;98430.94;;;5.07;88.79
76128;BME280;64873;50.102;14.434;2024-01-06T10:35:42;98457.66;;;5.19;88.43
76128;BME280;64873;50.102;14.434;2024-01-06T10:38:08;98454.41;;;5.24;88.76
76128;BME280;64873;50.102;14.434;2024-01-06T10:40:33;98442.78;;;5.25;88.78
76128;BME280;64873;50.102;14.434;2024-01-06T10:43:00;98437.47;;;5.12;88.80
76128;BME280;64873;50.102;14.434;2024-01-06T10:45:28;98436.66;;;5.11;89.10
76128;BME280;64873;50.102;14.434;2024-01-06T10:47:55;98439.31;;;5.18;88.88
76128;BME280;64873;50.102;14.434;2024-01-06T10:50:21;98413.00;;;5.09;88.94
76128;BME280;64873;50.102;14.434;2024-01-06T10:52:47;98410.19;;;5.18;88.64
76128;BME280;64873;50.102;14.434;2024-01-06T10:55:15;98407.13;;;5.34;87.75
76128;BME280;64873;50.102;14.434;2024-01-06T10:57:43;98402.25;;;5.24;87.75
76128;BME280;64873;50.102;14.434;2024-01-06T11:00:09;98412.63;;;5.26;87.99
76128;BME280;64873;50.102;14.434;2024-01-06T11:02:35;98411.00;;;5.31;87.80
76128;BME280;64873;50.102;14.434;2024-01-06T11:05:01;98418.75;;;5.40;87.67
76128;BME280;64873;50.102;14.434;2024-01-06T11:07:27;98412.81;;;5.38;87.67
76128;BME280;64873;50.102;14.434;2024-01-06T11:09:58;98410.81;;;5.46;89.47
76128;BME280;64873;50.102;14.434;2024-01-06T11:12:27;98416.50;;;5.43;87.06
76128;BME280;64873;50.102;14.434;2024-01-06T11:14:53;98418.56;;;5.28;88.01
76128;BME280;64873;50.102;14.434;2024-01-06T11:17:54;98423.44;;;5.18;88.45
76128;BME280;64873;50.102;14.434;2024-01-06T11:20:21;98410.78;;;5.20;88.40
76128;BME280;64873;50.102;14.434;2024-01-06T11:22:47;98423.22;;;5.26;88.76
76128;BME280;64873;50.102;14.434;2024-01-06T11:25:20;98398.38;;;5.07;89.12
76128;BME280;64873;50.102;14.434;2024-01-06T11:27:50;98401.63;;;5.16;89.57
76128;BME280;64873;50.102;14.434;2024-01-06T11:32:45;98413.03;;;5.36;88.54
76128;BME280;64873;50.102;14.434;2024-01-06T11:35:16;98415.06;;;5.21;88.89
76128;BME280;64873;50.102;14.434;2024-01-06T11:42:35;98426.06;;;5.31;88.34
76128;BME280;64873;50.102;14.434;2024-01-06T11:45:04;98419.75;;;5.32;88.28
76128;BME280;64873;50.102;14.434;2024-01-06T11:47:33;98424.84;;;5.27;88.40
76128;BME280;64873;50.102;14.434;2024-01-06T11:50:00;98424.25;;;5.31;88.60
76128;BME280;64873;50.102;14.434;2024-01-06T11:52:30;98419.38;;;5.28;88.67
76128;BME280;64873;50.102;14.434;2024-01-06T11:54:56;98424.25;;;5.31;88.12
76128;BME280;64873;50.102;14.434;2024-01-06T11:57:22;98429.53;;;5.38;87.79
76128;BME280;64873;50.102;14.434;2024-01-06T11:59:48;98422.41;;;5.39;88.17
76128;BME280;64873;50.102;14.434;2024-01-06T12:02:13;98422.22;;;5.40;88.72
76128;BME280;64873;50.102;14.434;2024-01-06T12:04:39;98424.22;;;5.45;87.98
76128;BME280;64873;50.102;14.434;2024-01-06T12:07:08;98429.75;;;5.43;87.98
76128;BME280;64873;50.102;14.434;2024-01-06T12:09:34;98434.66;;;5.46;88.22
76128;BME280;64873;50.102;14.434;2024-01-06T12:12:05;98409.97;;;5.13;88.82
76128;BME280;64873;50.102;14.434;2024-01-06T12:14:31;98420.78;;;5.18;88.46
76128;BME280;64873;50.102;14.434;2024-01-06T12:17:01;98433.41;;;5.29;89.30
76128;BME280;64873;50.102;14.434;2024-01-06T12:19:31;98416.50;;;5.23;89.10
76128;BME280;64873;50.102;14.434;2024-01-06T12:21:56;98409.56;;;5.42;89.35
76128;BME280;64873;50.102;14.434;2024-01-06T12:24:22;98400.78;;;5.55;89.38
76128;BME280;64873;50.102;14.434;2024-01-06T12:26:47;98410.78;;;5.53;88.28
76128;BME280;64873;50.102;14.434;2024-01-06T12:29:13;98421.38;;;5.33;88.04
76128;BME280;64873;50.102;14.434;2024-01-06T12:31:43;98427.09;;;5.30;89.25
76128;BME280;64873;50.102;14.434;2024-01-06T12:34:10;98418.34;;;5.29;89.10
76128;BME280;64873;50.102;14.434;2024-01-06T12:36:39;98419.38;;;5.35;89.00
76128;BME280;64873;50.102;14.434;2024-01-06T12:39:10;98400.41;;;5.51;88.50
76128;BME280;64873;50.102;14.434;2024-01-06T12:41:39;98421.78;;;5.43;87.53
76128;BME280;64873;50.102;14.434;2024-01-06T12:44:04;98426.88;;;5.12;89.46
76128;BME280;64873;50.102;14.434;2024-01-06T12:46:30;98424.25;;;5.12;90.62
76128;BME280;64873;50.102;14.434;2024-01-06T12:48:55;98409.75;;;5.21;89.28
76128;BME280;64873;50.102;14.434;2024-01-06T12:51:21;98414.66;;;5.24;88.71
76128;BME280;64873;50.102;14.434;2024-01-06T12:53:46;98422.63;;;5.24;88.66
76128;BME280;64873;50.102;14.434;2024-01-06T12:56:11;98427.09;;;5.23;88.24
76128;BME280;64873;50.102;14.434;2024-01-06T12:58:40;98430.56;;;5.11;88.91
76128;BME280;64873;50.102;14.434;2024-01-06T13:01:05;98431.38;;;5.18;88.68